Time;durP1;ratioP1;P1;durP2;ratioP2;P2;SDS_P1;SDS_P2;PMS_P1;PMS_P2;Temp;Humidity;BMP_temperature;BMP_pressure;BME280_temperature;BME280_humidity;BME280_pressure;Samples;Min_cycle;Max_cycle;Signal;HPM_P1;HPM_P2
2022/05/18 00:01:36;;;;;;;5.97;3.50;;;11.60;99.60;;;;;;4195290;28;20203;-67
2022/05/18 00:03:42;;;;;;;4.67;3.10;;;11.50;99.60;;;;;;4195560;28;20792;-68
2022/05/18 00:05:43;;;;;;;5.30;3.27;;;11.50;99.70;;;;;;4195140;28;20206;-67
2022/05/18 00:07:43;;;;;;;4.67;3.20;;;11.50;99.50;;;;;;4195680;28;20276;-67
2022/05/18 00:09:44;;;;;;;6.30;3.53;;;11.50;99.40;;;;;;4195634;28;20198;-67
2022/05/18 00:11:44;;;;;;;4.47;3.30;;;11.50;99.40;;;;;;4195233;28;20253;-68
2022/05/18 00:13:48;;;;;;;3.73;3.20;;;11.40;99.70;;;;;;4195344;28;20183;-67
2022/05/18 00:15:49;;;;;;;3.20;2.90;;;11.40;99.90;;;;;;4194987;28;20562;-67
2022/05/18 00:17:49;;;;;;;3.87;3.40;;;11.40;99.90;;;;;;4195435;28;20274;-68
2022/05/18 00:19:50;;;;;;;5.40;3.67;;;11.50;99.90;;;;;;4195187;28;20186;-68
2022/05/18 00:21:50;;;;;;;4.93;3.13;;;11.40;99.80;;;;;;4195043;28;20227;-68
2022/05/18 00:23:51;;;;;;;4.33;3.17;;;11.40;99.80;;;;;;4194876;28;20186;-69
2022/05/18 00:25:52;;;;;;;4.13;3.20;;;11.30;99.50;;;;;;4194800;28;20197;-67
2022/05/18 00:27:53;;;;;;;4.37;3.40;;;11.30;99.90;;;;;;4195389;28;20741;-67
2022/05/18 00:29:53;;;;;;;4.73;3.13;;;11.30;99.90;;;;;;4193926;28;20294;-67
2022/05/18 00:31:54;;;;;;;3.93;3.20;;;11.30;99.90;;;;;;4195372;28;20688;-67
2022/05/18 00:33:54;;;;;;;3.47;2.63;;;11.30;99.90;;;;;;4195345;28;20179;-67
2022/05/18 00:35:57;;;;;;;3.80;3.20;;;11.20;99.80;;;;;;4194835;28;20189;-68
2022/05/18 00:37:57;;;;;;;3.13;2.80;;;11.20;99.90;;;;;;4195212;28;20178;-68
2022/05/18 00:39:58;;;;;;;4.40;3.20;;;11.20;99.90;;;;;;4195422;28;20270;-67
2022/05/18 00:41:58;;;;;;;4.57;3.10;;;11.30;99.90;;;;;;4195055;28;20291;-68
2022/05/18 00:43:59;;;;;;;5.00;3.57;;;11.30;99.90;;;;;;4195231;28;20225;-67
2022/05/18 00:46:02;;;;;;;7.93;4.10;;;11.30;99.90;;;;;;4194487;28;20195;-68
2022/05/18 00:48:03;;;;;;;5.30;3.90;;;11.30;99.90;;;;;;4195155;28;20715;-68
2022/05/18 00:50:07;;;;;;;5.53;3.63;;;11.30;99.90;;;;;;4195068;28;20294;-68
2022/05/18 00:52:08;;;;;;;5.50;4.20;;;11.20;99.90;;;;;;4194913;28;20693;-68
2022/05/18 00:54:17;;;;;;;6.63;4.43;;;11.20;99.90;;;;;;4195209;28;20186;-68
2022/05/18 00:56:27;;;;;;;5.80;4.23;;;11.20;99.90;;;;;;4194514;28;20175;-68
2022/05/18 00:58:33;;;;;;;4.93;4.07;;;11.20;99.90;;;;;;4195513;28;20225;-68
2022/05/18 01:00:35;;;;;;;4.90;3.83;;;11.20;99.90;;;;;;4195310;28;20207;-68
2022/05/18 01:02:39;;;;;;;5.80;3.87;;;11.20;99.90;;;;;;4195356;28;20710;-68
2022/05/18 01:04:42;;;;;;;6.07;3.90;;;11.20;99.90;;;;;;4195196;28;20679;-67
2022/05/18 01:06:47;;;;;;;4.47;3.50;;;11.20;99.90;;;;;;4194538;28;20188;-67
2022/05/18 01:09:03;;;;;;;6.43;3.43;;;11.20;99.90;;;;;;4195228;28;20271;-68
2022/05/18 01:11:03;;;;;;;6.87;3.90;;;11.10;99.90;;;;;;4195053;28;20207;-67
2022/05/18 01:13:04;;;;;;;4.73;3.43;;;11.10;99.90;;;;;;4195188;28;20187;-68
2022/05/18 01:15:14;;;;;;;5.17;3.87;;;11.10;99.90;;;;;;4195260;28;21002;-68
2022/05/18 01:17:20;;;;;;;5.37;3.97;;;11.00;99.90;;;;;;4194457;28;20182;-67
2022/05/18 01:19:39;;;;;;;5.63;4.03;;;11.00;99.90;;;;;;4195444;28;20537;-67
2022/05/18 01:21:48;;;;;;;3.87;3.37;;;10.90;99.90;;;;;;4194917;28;20400;-68
2022/05/18 01:24:01;;;;;;;5.90;3.60;;;10.90;99.90;;;;;;4195041;28;20197;-68
2022/05/18 01:26:29;;;;;;;4.97;3.73;;;10.90;99.90;;;;;;4194565;28;20217;-68
2022/05/18 01:28:35;;;;;;;4.20;3.77;;;10.90;99.90;;;;;;4194868;28;20851;-68
2022/05/18 01:30:42;;;;;;;3.83;3.43;;;10.90;99.90;;;;;;4194925;28;20204;-67
2022/05/18 01:32:46;;;;;;;4.63;3.93;;;10.90;99.90;;;;;;4197556;28;20632;-68
2022/05/18 01:34:47;;;;;;;4.90;3.87;;;10.90;99.90;;;;;;4197770;28;20565;-67
2022/05/18 01:36:49;;;;;;;6.93;4.33;;;10.90;99.90;;;;;;4197346;28;20182;-68
2022/05/18 01:38:49;;;;;;;5.77;4.40;;;10.90;99.90;;;;;;4197913;28;20660;-68
2022/05/18 01:40:58;;;;;;;4.27;3.60;;;10.90;99.90;;;;;;4197870;28;20259;-68
2022/05/18 01:43:12;;;;;;;5.67;4.13;;;10.80;99.90;;;;;;4197761;28;20666;-68
2022/05/18 01:45:13;;;;;;;5.00;4.17;;;10.80;99.90;;;;;;4197645;28;20179;-67
2022/05/18 01:47:14;;;;;;;5.10;3.57;;;10.80;99.90;;;;;;4197525;28;20190;-67
2022/05/18 01:49:15;;;;;;;6.60;4.27;;;10.80;99.90;;;;;;4197543;28;20195;-68
2022/05/18 01:51:34;;;;;;;4.93;4.27;;;10.80;99.90;;;;;;4197464;28;20642;-68
2022/05/18 01:53:36;;;;;;;4.67;3.93;;;10.80;99.90;;;;;;4197756;28;20219;-68
2022/05/18 01:55:37;;;;;;;5.70;3.90;;;10.80;99.90;;;;;;4196788;28;20241;-68
2022/05/18 01:57:37;;;;;;;4.60;3.47;;;10.90;99.90;;;;;;4197561;28;20261;-68
2022/05/18 01:59:38;;;;;;;5.20;3.63;;;10.80;99.90;;;;;;4197413;28;20317;-68
2022/05/18 02:01:39;;;;;;;4.57;3.77;;;10.80;99.90;;;;;;4197853;28;20203;-68
2022/05/18 02:03:40;;;;;;;5.43;4.03;;;10.80;99.90;;;;;;4197527;28;20217;-68
2022/05/18 02:05:42;;;;;;;5.03;3.90;;;10.80;99.90;;;;;;4195409;28;20202;-68
2022/05/18 02:07:42;;;;;;;5.10;3.80;;;10.70;99.90;;;;;;4196204;28;20263;-68
2022/05/18 02:09:43;;;;;;;4.87;4.00;;;10.70;99.90;;;;;;4197201;28;20222;-67
2022/05/18 02:11:44;;;;;;;4.53;4.07;;;10.70;99.90;;;;;;4197097;28;20574;-69
2022/05/18 02:13:45;;;;;;;4.27;3.87;;;10.60;99.90;;;;;;4197222;28;20207;-68
2022/05/18 02:15:45;;;;;;;4.93;3.97;;;10.70;99.90;;;;;;4196393;28;20628;-68
2022/05/18 02:17:46;;;;;;;4.57;3.93;;;10.60;99.90;;;;;;4197022;28;20187;-68
2022/05/18 02:19:46;;;;;;;5.37;3.90;;;10.60;99.90;;;;;;4197081;28;20650;-68
2022/05/18 02:21:47;;;;;;;4.63;3.90;;;10.60;99.90;;;;;;4196726;28;20233;-68
2022/05/18 02:23:48;;;;;;;4.77;3.77;;;10.60;99.90;;;;;;4193620;28;20623;-68
2022/05/18 02:25:49;;;;;;;5.33;3.57;;;10.60;99.90;;;;;;4195787;28;20195;-68
2022/05/18 02:27:50;;;;;;;5.10;3.83;;;10.60;99.90;;;;;;4196671;28;20190;-68
2022/05/18 02:29:51;;;;;;;4.93;3.67;;;10.60;99.90;;;;;;4196972;28;20232;-68
2022/05/18 02:31:51;;;;;;;7.03;4.03;;;10.60;99.90;;;;;;4196392;28;20243;-67
2022/05/18 02:33:52;;;;;;;6.70;4.10;;;10.60;99.90;;;;;;4196704;28;20262;-68
2022/05/18 02:35:52;;;;;;;4.40;4.00;;;10.60;99.90;;;;;;4196065;28;20223;-68
2022/05/18 02:37:53;;;;;;;6.00;4.43;;;10.50;99.90;;;;;;4196674;28;20277;-68
2022/05/18 02:39:53;;;;;;;6.83;4.30;;;10.50;99.90;;;;;;4196649;28;20270;-67
2022/05/18 02:41:54;;;;;;;4.20;3.70;;;10.50;99.90;;;;;;4196923;28;20321;-67
2022/05/18 02:43:55;;;;;;;5.27;4.10;;;10.50;99.90;;;;;;4196612;28;20195;-67
2022/05/18 02:46:04;;;;;;;6.20;4.30;;;10.50;99.90;;;;;;4196044;28;20256;-67
2022/05/18 02:48:05;;;;;;;5.20;4.20;;;10.50;99.90;;;;;;4196592;28;20217;-67
2022/05/18 02:50:07;;;;;;;6.90;4.07;;;10.40;99.90;;;;;;4196364;28;20184;-68
2022/05/18 02:52:08;;;;;;;5.93;4.27;;;10.40;99.90;;;;;;4196148;28;20749;-68
2022/05/18 02:56:28;;;;;;;6.13;4.33;;;10.40;99.90;;;;;;4195572;28;20174;-68
2022/05/18 02:58:30;;;;;;;6.83;4.43;;;10.30;99.90;;;;;;4196574;28;20951;-68
2022/05/18 03:00:30;;;;;;;4.30;3.63;;;10.30;99.90;;;;;;4195777;28;20274;-68
2022/05/18 03:02:32;;;;;;;4.50;3.97;;;10.30;99.90;;;;;;4196237;28;20202;-68
2022/05/18 03:04:32;;;;;;;5.20;3.80;;;10.20;99.90;;;;;;4196204;28;20180;-68
2022/05/18 03:06:33;;;;;;;5.10;4.10;;;10.20;99.90;;;;;;4195666;28;20230;-68
2022/05/18 03:08:36;;;;;;;5.00;3.97;;;10.20;99.90;;;;;;4196054;28;20171;-68
2022/05/18 03:10:36;;;;;;;5.77;4.90;;;10.20;99.90;;;;;;4195876;28;20174;-68
2022/05/18 03:12:37;;;;;;;7.07;4.27;;;10.20;99.90;;;;;;4196034;28;20230;-69
2022/05/18 03:14:37;;;;;;;7.83;4.67;;;10.20;99.90;;;;;;4195851;28;20240;-68
2022/05/18 03:16:39;;;;;;;7.50;4.90;;;10.20;99.90;;;;;;4195170;28;20187;-68
2022/05/18 03:18:40;;;;;;;5.37;4.03;;;10.20;99.90;;;;;;4195794;28;20680;-68
2022/05/18 03:25:21;;;;;;;5.17;4.50;;;10.30;99.90;;;;;;4195089;28;20189;-68
2022/05/18 03:27:22;;;;;;;4.40;4.00;;;10.20;99.90;;;;;;4195651;28;20190;-68
2022/05/18 03:29:22;;;;;;;6.10;4.53;;;10.20;99.90;;;;;;4195442;28;20183;-68
2022/05/18 03:31:25;;;;;;;7.20;4.63;;;10.20;99.90;;;;;;4195140;28;20972;-68
2022/05/18 03:33:26;;;;;;;3.90;3.50;;;10.20;99.90;;;;;;4195533;28;20178;-68
2022/05/18 03:35:26;;;;;;;5.83;4.00;;;10.20;99.90;;;;;;4194566;28;20188;-68
2022/05/18 03:37:27;;;;;;;5.00;4.47;;;10.10;99.90;;;;;;4195377;28;20609;-68
2022/05/18 03:39:28;;;;;;;6.20;4.00;;;10.10;99.90;;;;;;4195383;28;20195;-68
2022/05/18 03:41:28;;;;;;;6.97;5.27;;;10.10;99.90;;;;;;4195917;28;20271;-68
2022/05/18 03:43:29;;;;;;;5.67;4.33;;;10.10;99.90;;;;;;4197300;28;20194;-65
2022/05/18 03:45:30;;;;;;;4.83;3.77;;;10.10;99.90;;;;;;4196496;28;20237;-67
2022/05/18 03:47:31;;;;;;;4.53;3.97;;;10.10;99.90;;;;;;4197688;28;20186;-68
2022/05/18 03:49:32;;;;;;;4.80;3.90;;;10.00;99.90;;;;;;4196896;28;20176;-68
2022/05/18 03:51:32;;;;;;;5.23;4.20;;;10.10;99.90;;;;;;4197403;28;20209;-68
2022/05/18 03:53:34;;;;;;;4.87;3.70;;;10.10;99.90;;;;;;4196792;28;20701;-69
2022/05/18 03:55:37;;;;;;;5.87;4.23;;;10.10;99.90;;;;;;4196179;28;20186;-68
2022/05/18 03:57:37;;;;;;;5.50;4.20;;;10.10;99.90;;;;;;4196641;28;20178;-68
2022/05/18 03:59:39;;;;;;;5.50;4.10;;;10.10;99.90;;;;;;4196677;28;20193;-68
2022/05/18 04:01:41;;;;;;;5.90;4.57;;;10.00;99.90;;;;;;4197356;28;20305;-68
2022/05/18 04:03:45;;;;;;;5.10;4.60;;;10.00;99.90;;;;;;4196746;28;20733;-68
2022/05/18 04:05:50;;;;;;;5.50;4.17;;;10.10;99.90;;;;;;4195727;28;20178;-68
2022/05/18 04:07:51;;;;;;;6.10;4.47;;;10.10;99.90;;;;;;4197048;28;20236;-68
2022/05/18 04:09:51;;;;;;;6.10;4.67;;;10.10;99.90;;;;;;4196696;28;20184;-68
2022/05/18 04:11:52;;;;;;;5.57;4.93;;;10.20;99.90;;;;;;4196739;28;20768;-68
2022/05/18 04:13:52;;;;;;;6.33;4.80;;;10.20;99.90;;;;;;4196724;28;20182;-68
2022/05/18 04:15:54;;;;;;;4.80;3.97;;;10.20;99.90;;;;;;4196324;28;20712;-68
2022/05/18 04:17:55;;;;;;;5.97;4.30;;;10.20;99.90;;;;;;4196673;28;20237;-68
2022/05/18 04:19:55;;;;;;;4.57;4.07;;;10.20;99.90;;;;;;4196976;28;20168;-68
2022/05/18 04:21:56;;;;;;;4.60;3.83;;;10.20;99.90;;;;;;4196834;28;20204;-68
2022/05/18 04:23:57;;;;;;;6.43;4.23;;;10.20;99.90;;;;;;4195958;28;20175;-68
2022/05/18 04:25:57;;;;;;;6.40;4.60;;;10.20;99.90;;;;;;4194048;28;20291;-68
2022/05/18 04:27:58;;;;;;;4.83;4.20;;;10.30;99.90;;;;;;4195360;28;20205;-68
2022/05/18 04:29:58;;;;;;;6.67;4.00;;;10.30;99.90;;;;;;4195439;28;20940;-68
2022/05/18 04:31:59;;;;;;;5.93;4.50;;;10.30;99.90;;;;;;4195389;28;20678;-68
2022/05/18 04:33:59;;;;;;;5.83;4.40;;;10.30;99.90;;;;;;4195519;28;20224;-68
2022/05/18 04:36:02;;;;;;;5.73;4.27;;;10.30;99.90;;;;;;4194484;28;20179;-68
2022/05/18 04:38:02;;;;;;;5.37;3.90;;;10.40;99.90;;;;;;4195402;28;20741;-68
2022/05/18 04:40:04;;;;;;;6.67;4.97;;;10.50;99.90;;;;;;4195303;28;20179;-68
2022/05/18 04:42:05;;;;;;;5.20;4.50;;;10.50;99.90;;;;;;4195136;28;20777;-68
2022/05/18 04:44:05;;;;;;;4.50;3.83;;;10.50;99.90;;;;;;4195500;28;20188;-67
2022/05/18 04:46:07;;;;;;;4.73;4.10;;;10.50;99.90;;;;;;4194534;28;20187;-68
2022/05/18 04:48:08;;;;;;;4.20;3.77;;;10.50;99.90;;;;;;4195220;28;20180;-68
2022/05/18 04:50:10;;;;;;;5.80;4.20;;;10.50;99.90;;;;;;4195406;28;20192;-68
2022/05/18 04:52:10;;;;;;;6.67;4.43;;;10.50;99.90;;;;;;4195525;28;20214;-68
2022/05/18 04:54:11;;;;;;;5.07;4.57;;;10.60;99.90;;;;;;4196529;28;20179;-68
2022/05/18 04:56:11;;;;;;;4.20;3.80;;;10.60;99.90;;;;;;4194619;28;20186;-68
2022/05/18 04:58:12;;;;;;;4.23;3.50;;;10.60;99.90;;;;;;4195368;28;20584;-68
2022/05/18 05:00:15;;;;;;;4.47;3.97;;;10.70;99.90;;;;;;4196407;28;20176;-68
2022/05/18 05:02:16;;;;;;;4.03;3.50;;;10.70;99.90;;;;;;4194049;28;20293;-66
2022/05/18 05:04:17;;;;;;;4.30;3.90;;;10.70;99.90;;;;;;4194642;28;20182;-68
2022/05/18 05:06:17;;;;;;;3.97;3.57;;;10.70;99.90;;;;;;4194663;28;20172;-68
2022/05/18 05:08:19;;;;;;;5.10;4.00;;;10.80;99.90;;;;;;4197754;28;20562;-68
2022/05/18 05:10:19;;;;;;;6.60;4.17;;;10.80;99.90;;;;;;4197834;28;20224;-68
2022/05/18 05:12:20;;;;;;;6.30;4.23;;;10.90;99.90;;;;;;4197733;28;20298;-68
2022/05/18 05:14:22;;;;;;;5.60;3.90;;;10.90;99.90;;;;;;4198232;28;20175;-68
2022/05/18 05:16:22;;;;;;;4.47;3.63;;;10.90;99.90;;;;;;4198885;28;20653;-68
2022/05/18 05:18:23;;;;;;;4.60;4.00;;;11.10;99.90;;;;;;4197539;28;20175;-68
2022/05/18 05:20:23;;;;;;;5.73;3.70;;;11.10;99.90;;;;;;4197345;28;20190;-68
2022/05/18 05:22:24;;;;;;;7.47;3.80;;;11.20;99.90;;;;;;4197465;28;20207;-68
2022/05/18 05:24:25;;;;;;;8.33;3.70;;;11.30;99.90;;;;;;4197418;28;20191;-68
2022/05/18 05:26:25;;;;;;;5.47;4.10;;;11.30;99.90;;;;;;4196696;28;20260;-68
2022/05/18 05:28:26;;;;;;;4.63;3.60;;;11.30;99.90;;;;;;4197467;28;20205;-68
2022/05/18 05:30:27;;;;;;;4.60;4.03;;;11.40;99.90;;;;;;4197374;28;20213;-68
2022/05/18 05:32:27;;;;;;;4.47;3.87;;;11.40;99.90;;;;;;4197534;28;20297;-68
2022/05/18 05:34:28;;;;;;;4.63;3.73;;;11.50;99.90;;;;;;4197510;28;20187;-68
2022/05/18 05:36:29;;;;;;;5.37;4.17;;;11.50;99.90;;;;;;4196545;28;20172;-68
2022/05/18 05:38:30;;;;;;;5.20;3.40;;;11.60;99.90;;;;;;4197426;28;20487;-68
2022/05/18 05:40:30;;;;;;;4.07;3.47;;;11.70;99.90;;;;;;4197263;28;20205;-68
2022/05/18 05:42:31;;;;;;;5.13;3.70;;;11.70;99.90;;;;;;4197214;28;20241;-68
2022/05/18 05:44:31;;;;;;;3.80;3.17;;;11.80;99.90;;;;;;4197564;28;20176;-67
2022/05/18 05:46:32;;;;;;;5.70;4.07;;;11.90;99.90;;;;;;4196694;28;20302;-67
2022/05/18 05:48:34;;;;;;;4.43;3.70;;;11.90;99.90;;;;;;4197359;28;20904;-68
2022/05/18 05:50:34;;;;;;;4.17;3.70;;;12.00;99.90;;;;;;4197097;28;20936;-68
2022/05/18 05:52:35;;;;;;;5.40;3.80;;;12.00;99.90;;;;;;4196978;28;20207;-68
2022/05/18 05:54:36;;;;;;;5.73;4.27;;;12.10;99.90;;;;;;4197145;28;20187;-67
2022/05/18 05:56:36;;;;;;;4.13;3.60;;;12.20;99.90;;;;;;4196124;28;20722;-68
2022/05/18 05:58:37;;;;;;;8.97;4.23;;;12.20;99.90;;;;;;4197057;28;20200;-67
2022/05/18 06:00:38;;;;;;;3.67;3.00;;;12.30;99.90;;;;;;4196900;28;20176;-68
2022/05/18 06:02:39;;;;;;;4.93;3.33;;;12.30;99.90;;;;;;4197128;28;20184;-68
2022/05/18 06:04:39;;;;;;;5.47;3.67;;;12.40;99.90;;;;;;4196823;28;20848;-67
2022/05/18 06:06:41;;;;;;;6.00;3.60;;;12.60;99.90;;;;;;4196034;28;20187;-72
2022/05/18 06:08:41;;;;;;;3.97;3.03;;;12.70;99.90;;;;;;4196887;28;20179;-68
2022/05/18 06:10:42;;;;;;;4.87;3.27;;;13.00;99.90;;;;;;4196851;28;20207;-67
2022/05/18 06:12:42;;;;;;;5.00;3.10;;;13.20;99.90;;;;;;4196936;28;20678;-68
2022/05/18 06:14:44;;;;;;;4.00;3.20;;;13.20;99.90;;;;;;4197147;28;20176;-67
2022/05/18 06:16:49;;;;;;;4.47;3.63;;;13.50;99.90;;;;;;4195641;28;20196;-68
2022/05/18 06:18:49;;;;;;;4.30;3.50;;;13.60;99.00;;;;;;4196640;28;20302;-67
2022/05/18 06:20:50;;;;;;;4.03;2.97;;;13.80;98.30;;;;;;4196590;28;20195;-68
2022/05/18 06:22:50;;;;;;;5.80;3.27;;;13.80;97.90;;;;;;4196433;28;20179;-67
2022/05/18 06:24:52;;;;;;;3.67;3.27;;;13.90;97.70;;;;;;4193226;28;20189;-68
2022/05/18 06:26:56;;;;;;;4.60;3.20;;;14.10;96.80;;;;;;4195713;28;20186;-68
2022/05/18 06:28:56;;;;;;;6.40;3.13;;;14.30;95.40;;;;;;4196541;28;20207;-68
2022/05/18 06:30:57;;;;;;;5.27;3.20;;;14.40;95.40;;;;;;4196190;28;20233;-67
2022/05/18 06:32:57;;;;;;;3.00;2.70;;;14.60;94.30;;;;;;4196618;28;20207;-68
2022/05/18 06:34:58;;;;;;;5.07;3.10;;;15.00;91.90;;;;;;4196231;28;20229;-68
2022/05/18 06:36:58;;;;;;;3.00;2.70;;;15.00;92.00;;;;;;4196062;28;20241;-68
2022/05/18 06:38:59;;;;;;;4.13;2.70;;;15.20;90.20;;;;;;4196258;28;20241;-68
2022/05/18 06:43:18;;;;;;;4.97;3.00;;;15.70;85.10;;;;;;4196456;28;20245;-67
2022/05/18 06:45:19;;;;;;;6.20;3.10;;;15.80;87.50;;;;;;4196031;28;20637;-68
2022/05/18 06:47:19;;;;;;;3.23;2.70;;;15.90;87.70;;;;;;4194679;28;20632;-68
2022/05/18 06:49:20;;;;;;;2.90;2.43;;;16.00;86.00;;;;;;4196172;28;20187;-68
2022/05/18 06:51:24;;;;;;;6.00;2.70;;;16.10;86.10;;;;;;4196247;28;20251;-68
2022/05/18 06:53:24;;;;;;;4.00;2.73;;;16.20;85.50;;;;;;4196202;28;20900;-68
2022/05/18 06:55:25;;;;;;;5.47;3.03;;;16.40;81.20;;;;;;4195370;28;20178;-68
2022/05/18 06:57:25;;;;;;;5.87;2.60;;;16.50;82.40;;;;;;4196011;28;20183;-68
2022/05/18 06:59:26;;;;;;;4.50;2.60;;;16.60;81.10;;;;;;4196039;28;20168;-68
2022/05/18 07:01:28;;;;;;;4.10;2.43;;;16.70;81.70;;;;;;4195441;28;20207;-68
2022/05/18 07:03:29;;;;;;;4.20;2.33;;;16.90;79.00;;;;;;4195738;28;20179;-68
2022/05/18 07:05:30;;;;;;;3.03;2.57;;;17.00;75.80;;;;;;4195246;28;20623;-68
2022/05/18 07:07:30;;;;;;;5.07;2.53;;;17.20;75.70;;;;;;4195831;28;20244;-68
2022/05/18 07:09:31;;;;;;;4.50;2.80;;;17.20;77.40;;;;;;4195831;28;20184;-68
2022/05/18 07:11:36;;;;;;;5.90;2.60;;;17.40;73.50;;;;;;4195701;28;20200;-68
2022/05/18 07:13:38;;;;;;;4.10;2.70;;;17.60;68.30;;;;;;4196081;28;20175;-68
2022/05/18 07:15:38;;;;;;;3.40;2.80;;;17.70;69.60;;;;;;4195484;28;20233;-68
2022/05/18 07:17:40;;;;;;;4.97;2.77;;;17.60;69.20;;;;;;4195616;28;20183;-68
2022/05/18 07:19:40;;;;;;;3.20;2.43;;;17.70;70.40;;;;;;4195664;28;20171;-68
2022/05/18 07:21:42;;;;;;;3.37;2.67;;;17.80;68.90;;;;;;4195495;28;20745;-68
2022/05/18 07:23:43;;;;;;;3.00;2.20;;;17.90;68.60;;;;;;4195499;28;20650;-68
2022/05/18 07:25:43;;;;;;;5.80;2.47;;;18.10;67.80;;;;;;4194954;28;20190;-68
2022/05/18 07:27:44;;;;;;;2.37;2.17;;;18.20;66.30;;;;;;4195576;28;20186;-68
2022/05/18 07:29:44;;;;;;;3.10;2.43;;;18.30;64.00;;;;;;4194894;28;20176;-68
2022/05/18 07:34:04;;;;;;;4.77;3.10;;;18.50;61.90;;;;;;4195609;28;20642;-68
2022/05/18 07:36:05;;;;;;;8.10;2.60;;;18.50;62.90;;;;;;4194885;28;20192;-67
2022/05/18 07:38:06;;;;;;;2.93;2.37;;;18.60;66.40;;;;;;4195643;28;20264;-67
2022/05/18 07:40:08;;;;;;;3.77;2.57;;;18.60;69.60;;;;;;4195313;28;20179;-67
2022/05/18 07:42:09;;;;;;;5.27;3.10;;;18.70;63.40;;;;;;4195710;28;20282;-67
2022/05/18 07:44:10;;;;;;;6.23;2.97;;;18.70;67.00;;;;;;4195893;28;20193;-69
2022/05/18 07:46:12;;;;;;;3.10;2.23;;;18.80;62.30;;;;;;4195564;28;20184;-67
2022/05/18 07:48:13;;;;;;;4.13;2.50;;;18.80;60.70;;;;;;4196225;28;20191;-67
2022/05/18 07:50:14;;;;;;;5.40;2.70;;;18.80;61.40;;;;;;4195693;28;20267;-68
2022/05/18 07:52:14;;;;;;;2.53;2.33;;;18.90;60.70;;;;;;4195499;28;20218;-67
2022/05/18 07:54:15;;;;;;;4.30;2.60;;;19.00;59.80;;;;;;4195617;28;20214;-68
2022/05/18 07:56:16;;;;;;;4.43;2.70;;;19.20;60.20;;;;;;4194918;28;20638;-68
2022/05/18 07:58:19;;;;;;;2.80;2.50;;;19.30;59.20;;;;;;4195637;28;20168;-67
2022/05/18 08:00:21;;;;;;;3.33;2.60;;;19.30;59.00;;;;;;4195601;28;20176;-68
2022/05/18 08:02:22;;;;;;;4.80;3.33;;;19.30;58.90;;;;;;4195242;28;20200;-67
2022/05/18 08:04:22;;;;;;;3.40;2.70;;;19.20;60.40;;;;;;4195644;28;20211;-68
2022/05/18 08:06:23;;;;;;;6.47;3.10;;;19.30;60.00;;;;;;4194621;28;20225;-68
2022/05/18 08:08:23;;;;;;;5.63;2.33;;;19.30;58.20;;;;;;4195451;28;20211;-67
2022/05/18 08:15:05;;;;;;;3.20;2.60;;;19.70;57.60;;;;;;4195396;28;20599;-67
2022/05/18 08:17:06;;;;;;;5.13;2.40;;;19.80;58.30;;;;;;4195124;28;20183;-67
2022/05/18 08:19:10;;;;;;;5.43;2.60;;;19.80;56.70;;;;;;4195427;28;20184;-68
2022/05/18 08:21:10;;;;;;;3.97;2.80;;;19.80;56.70;;;;;;4195337;28;20214;-67
2022/05/18 08:23:11;;;;;;;3.43;2.43;;;19.90;58.40;;;;;;4195223;28;20194;-68
2022/05/18 08:25:13;;;;;;;2.90;2.50;;;20.10;57.20;;;;;;4195191;28;20176;-68
2022/05/18 08:27:16;;;;;;;2.90;2.40;;;20.10;55.40;;;;;;4194979;28;20207;-68
2022/05/18 08:29:16;;;;;;;4.67;2.77;;;20.10;55.60;;;;;;4194670;28;20180;-68
2022/05/18 08:31:17;;;;;;;3.47;2.67;;;20.10;55.70;;;;;;4195291;28;20705;-68
2022/05/18 08:33:18;;;;;;;3.07;2.57;;;20.20;55.30;;;;;;4195306;28;20190;-68
2022/05/18 08:35:19;;;;;;;5.80;2.70;;;20.20;55.20;;;;;;4195124;28;20190;-68
2022/05/18 08:37:22;;;;;;;3.77;2.77;;;20.40;55.80;;;;;;4195070;28;20197;-68
2022/05/18 08:39:23;;;;;;;6.67;2.60;;;20.20;54.60;;;;;;4194254;28;20206;-67
2022/05/18 08:41:32;;;;;;;3.00;2.57;;;20.50;56.30;;;;;;4197561;28;20207;-68
2022/05/18 08:43:34;;;;;;;3.50;2.70;;;20.70;54.30;;;;;;4198823;28;20556;-67
2022/05/18 08:45:41;;;;;;;3.60;2.43;;;20.90;53.60;;;;;;4198041;28;20198;-68
2022/05/18 08:47:46;;;;;;;5.87;2.57;;;20.90;54.90;;;;;;4198977;28;20666;-67
2022/05/18 08:49:50;;;;;;;4.17;2.47;;;20.80;54.80;;;;;;4198616;28;20172;-68
2022/05/18 08:52:11;;;;;;;3.10;2.77;;;20.90;54.50;;;;;;4198713;28;20207;-67
2022/05/18 08:54:49;;;;;;;6.50;2.80;;;21.10;55.30;;;;;;4198780;28;20539;-68
2022/05/18 08:56:52;;;;;;;3.03;2.00;;;21.30;55.50;;;;;;4197669;28;20180;-68
2022/05/18 08:58:54;;;;;;;5.53;2.73;;;21.40;53.10;;;;;;4198105;28;20732;-68
2022/05/18 09:01:01;;;;;;;2.80;2.33;;;21.30;52.30;;;;;;4198564;28;20225;-68
2022/05/18 09:03:11;;;;;;;2.70;2.50;;;21.20;53.60;;;;;;4198475;28;20189;-67
2022/05/18 09:05:32;;;;;;;3.53;2.60;;;21.30;54.10;;;;;;4198239;28;20550;-68
2022/05/18 09:07:50;;;;;;;3.27;2.57;;;21.40;51.80;;;;;;4198066;28;20757;-68
2022/05/18 09:10:13;;;;;;;3.13;2.60;;;21.60;51.80;;;;;;4198311;28;20828;-68
2022/05/18 09:12:14;;;;;;;3.07;2.70;;;21.80;50.90;;;;;;4198840;28;20219;-68
2022/05/18 09:14:18;;;;;;;4.23;2.47;;;22.00;50.90;;;;;;4198212;28;20183;-68
2022/05/18 09:16:30;;;;;;;3.60;2.70;;;22.00;49.80;;;;;;4197636;28;20184;-68
2022/05/18 09:18:59;;;;;;;3.37;2.57;;;21.90;52.10;;;;;;4198486;28;20259;-68
2022/05/18 09:21:17;;;;;;;3.77;2.73;;;22.00;51.00;;;;;;4197703;28;20220;-68
2022/05/18 09:23:34;;;;;;;3.03;2.50;;;22.10;50.00;;;;;;4197605;28;20174;-68
2022/05/18 09:25:40;;;;;;;4.90;2.37;;;22.10;51.00;;;;;;4197023;28;20168;-68
2022/05/18 09:28:02;;;;;;;3.00;2.17;;;22.50;51.30;;;;;;4197451;28;20176;-68
2022/05/18 09:30:19;;;;;;;3.83;2.10;;;22.80;48.00;;;;;;4197380;28;20707;-68
2022/05/18 09:32:26;;;;;;;3.80;2.40;;;22.40;49.60;;;;;;4197482;28;20207;-68
2022/05/18 09:34:37;;;;;;;4.47;2.40;;;22.80;49.30;;;;;;4197230;28;20156;-68
2022/05/18 09:36:49;;;;;;;3.60;2.17;;;23.10;48.80;;;;;;4196887;28;20175;-68
2022/05/18 09:38:57;;;;;;;3.03;2.57;;;23.20;47.80;;;;;;4197467;28;20167;-67
2022/05/18 09:41:00;;;;;;;3.60;2.50;;;23.30;45.70;;;;;;4197283;28;20159;-68
2022/05/18 09:43:10;;;;;;;3.60;2.57;;;23.20;48.30;;;;;;4197494;28;20219;-68
2022/05/18 09:45:17;;;;;;;2.77;2.10;;;23.60;47.40;;;;;;4197295;28;20183;-68
2022/05/18 09:47:20;;;;;;;4.87;2.20;;;23.70;43.60;;;;;;4197041;28;20156;-68
2022/05/18 09:49:31;;;;;;;3.27;2.37;;;23.60;44.10;;;;;;4197607;28;20175;-67
2022/05/18 09:51:32;;;;;;;3.47;1.97;;;23.30;44.80;;;;;;4197026;28;20249;-68
2022/05/18 09:53:33;;;;;;;2.80;2.00;;;23.00;44.50;;;;;;4197070;28;20643;-68
2022/05/18 09:55:34;;;;;;;2.43;2.13;;;23.20;43.70;;;;;;4196629;28;20180;-68
2022/05/18 09:57:47;;;;;;;4.30;2.00;;;23.50;43.30;;;;;;4197115;28;20655;-68
2022/05/18 10:00:10;;;;;;;2.53;1.90;;;23.40;42.40;;;;;;4197301;28;20160;-67
2022/05/18 10:09:36;;;;;;;2.07;1.80;;;24.20;40.60;;;;;;4197124;28;20171;-68
2022/05/18 10:11:39;;;;;;;4.23;2.00;;;24.50;39.00;;;;;;4196857;28;20237;-68
2022/05/18 10:14:00;;;;;;;2.83;2.07;;;24.60;41.50;;;;;;4196827;28;20171;-68
2022/05/18 10:16:14;;;;;;;3.00;1.80;;;24.60;36.90;;;;;;4196483;28;20183;-68
2022/05/18 10:18:33;;;;;;;2.57;1.83;;;24.30;37.10;;;;;;4197043;28;20804;-68
2022/05/18 10:20:35;;;;;;;3.17;1.60;;;24.60;38.10;;;;;;4196882;28;20202;-68
2022/05/18 10:22:44;;;;;;;2.10;1.60;;;24.80;37.50;;;;;;4196832;28;20210;-68
2022/05/18 10:24:57;;;;;;;1.90;1.80;;;24.90;35.70;;;;;;4196623;28;20235;-68
2022/05/18 10:27:21;;;;;;;2.97;2.00;;;25.00;35.90;;;;;;4196437;28;20251;-68
2022/05/18 10:29:23;;;;;;;2.83;1.70;;;25.60;35.50;;;;;;4196685;28;20168;-68
2022/05/18 10:31:31;;;;;;;3.67;2.37;;;26.20;36.50;;;;;;4196757;28;20279;-68
2022/05/18 10:33:37;;;;;;;2.77;2.30;;;26.50;36.30;;;;;;4196713;28;20176;-68
2022/05/18 10:35:51;;;;;;;2.60;2.40;;;26.00;35.90;;;;;;4195572;28;20654;-68
2022/05/18 10:37:52;;;;;;;2.50;1.97;;;26.10;35.50;;;;;;4196684;28;20539;-68
2022/05/18 10:40:05;;;;;;;2.60;2.13;;;26.90;35.70;;;;;;4194975;28;20186;-68
2022/05/18 10:42:10;;;;;;;2.57;1.80;;;27.20;33.90;;;;;;4196460;28;20223;-68
2022/05/18 10:44:19;;;;;;;1.83;1.73;;;27.50;32.30;;;;;;4196614;28;20610;-68
2022/05/18 10:46:27;;;;;;;2.42;2.08;;;28.50;29.50;;;;;;4195845;28;20248;-68
2022/05/18 10:48:31;;;;;;;2.65;2.10;;;27.10;31.40;;;;;;4196525;28;20207;-68
2022/05/18 10:50:39;;;;;;;3.00;2.13;;;26.90;32.30;;;;;;4196054;28;20237;-68
2022/05/18 10:52:39;;;;;;;2.30;1.73;;;27.80;32.40;;;;;;4196359;28;21042;-68
2022/05/18 10:55:11;;;;;;;2.53;1.60;;;27.90;31.20;;;;;;4196056;28;20176;-68
2022/05/18 10:57:17;;;;;;;2.55;1.92;;;29.00;29.40;;;;;;4194936;28;20192;-68
2022/05/18 10:59:39;;;;;;;2.58;1.70;;;28.30;29.80;;;;;;4196100;28;20241;-68
2022/05/18 11:01:47;;;;;;;1.92;1.80;;;28.10;29.40;;;;;;4195765;28;20195;-68
2022/05/18 11:03:55;;;;;;;2.20;1.80;;;28.40;28.90;;;;;;4195028;28;20649;-68
2022/05/18 11:06:07;;;;;;;2.53;2.25;;;28.70;29.20;;;;;;4195150;28;20586;-68
2022/05/18 11:08:14;;;;;;;2.60;1.88;;;29.30;29.00;;;;;;4195911;28;20190;-68